sensor_id;sensor_type;location;lat;lon;timestamp;P1;durP1;ratioP1;P2;durP2;ratioP2
70342;SDS011;57767;42.068;24.752;2023-06-22T00:00:07;9.25;;;6.63;;
70342;SDS011;57767;42.068;24.752;2023-06-22T00:01:13;7.45;;;6.45;;
70342;SDS011;57767;42.068;24.752;2023-06-22T00:02:15;7.25;;;6.55;;
70342;SDS011;57767;42.068;24.752;2023-06-22T00:03:18;7.03;;;6.32;;
70342;SDS011;57767;42.068;24.752;2023-06-22T00:04:21;9.02;;;6.57;;
70342;SDS011;57767;42.068;24.752;2023-06-22T00:05:23;6.28;;;5.53;;
70342;SDS011;57767;42.068;24.752;2023-06-22T00:06:25;6.15;;;5.60;;
70342;SDS011;57767;42.068;24.752;2023-06-22T00:07:27;6.47;;;5.88;;
70342;SDS011;57767;42.068;24.752;2023-06-22T00:08:28;7.20;;;6.50;;
70342;SDS011;57767;42.068;24.752;2023-06-22T00:09:31;6.55;;;5.95;;
70342;SDS011;57767;42.068;24.752;2023-06-22T00:10:33;9.68;;;6.50;;
70342;SDS011;57767;42.068;24.752;2023-06-22T00:11:36;6.50;;;5.90;;
70342;SDS011;57767;42.068;24.752;2023-06-22T00:12:38;7.30;;;6.45;;
70342;SDS011;57767;42.068;24.752;2023-06-22T00:13:40;7.57;;;6.65;;
70342;SDS011;57767;42.068;24.752;2023-06-22T00:14:42;7.47;;;6.53;;
70342;SDS011;57767;42.068;24.752;2023-06-22T00:15:44;7.65;;;6.85;;
70342;SDS011;57767;42.068;24.752;2023-06-22T00:16:46;6.80;;;6.10;;
70342;SDS011;57767;42.068;24.752;2023-06-22T00:17:50;11.27;;;6.65;;
70342;SDS011;57767;42.068;24.752;2023-06-22T00:18:52;8.93;;;6.80;;
70342;SDS011;57767;42.068;24.752;2023-06-22T00:19:54;8.32;;;6.90;;
70342;SDS011;57767;42.068;24.752;2023-06-22T00:20:56;7.78;;;6.72;;
70342;SDS011;57767;42.068;24.752;2023-06-22T00:21:59;7.40;;;6.60;;
70342;SDS011;57767;42.068;24.752;2023-06-22T00:23:01;8.00;;;6.80;;
70342;SDS011;57767;42.068;24.752;2023-06-22T00:24:07;7.45;;;6.68;;
70342;SDS011;57767;42.068;24.752;2023-06-22T00:25:10;8.55;;;6.78;;
70342;SDS011;57767;42.068;24.752;2023-06-22T00:26:11;11.25;;;6.95;;
70342;SDS011;57767;42.068;24.752;2023-06-22T00:27:13;9.48;;;6.90;;
70342;SDS011;57767;42.068;24.752;2023-06-22T00:28:15;8.40;;;7.30;;
70342;SDS011;57767;42.068;24.752;2023-06-22T00:29:17;8.45;;;6.90;;
70342;SDS011;57767;42.068;24.752;2023-06-22T00:30:19;8.63;;;6.93;;
70342;SDS011;57767;42.068;24.752;2023-06-22T00:31:21;9.70;;;7.43;;
70342;SDS011;57767;42.068;24.752;2023-06-22T00:32:23;7.40;;;6.60;;
70342;SDS011;57767;42.068;24.752;2023-06-22T00:33:25;9.00;;;7.32;;
70342;SDS011;57767;42.068;24.752;2023-06-22T00:34:27;8.63;;;6.70;;
70342;SDS011;57767;42.068;24.752;2023-06-22T00:35:29;7.38;;;6.68;;
70342;SDS011;57767;42.068;24.752;2023-06-22T00:36:30;7.75;;;6.88;;
70342;SDS011;57767;42.068;24.752;2023-06-22T00:37:32;8.25;;;7.05;;
70342;SDS011;57767;42.068;24.752;2023-06-22T00:38:34;8.13;;;7.00;;
70342;SDS011;57767;42.068;24.752;2023-06-22T00:39:36;11.15;;;7.13;;
70342;SDS011;57767;42.068;24.752;2023-06-22T00:40:38;12.32;;;7.22;;
70342;SDS011;57767;42.068;24.752;2023-06-22T00:41:40;9.32;;;7.30;;
70342;SDS011;57767;42.068;24.752;2023-06-22T00:42:41;8.95;;;7.20;;
70342;SDS011;57767;42.068;24.752;2023-06-22T00:43:45;7.78;;;7.05;;
70342;SDS011;57767;42.068;24.752;2023-06-22T00:44:47;7.93;;;7.13;;
70342;SDS011;57767;42.068;24.752;2023-06-22T00:45:49;9.30;;;7.18;;
70342;SDS011;57767;42.068;24.752;2023-06-22T00:46:51;8.10;;;7.20;;
70342;SDS011;57767;42.068;24.752;2023-06-22T00:47:54;9.43;;;7.32;;
70342;SDS011;57767;42.068;24.752;2023-06-22T00:49:00;9.63;;;7.18;;
70342;SDS011;57767;42.068;24.752;2023-06-22T00:50:02;9.02;;;7.55;;
70342;SDS011;57767;42.068;24.752;2023-06-22T00:51:08;8.80;;;7.20;;
70342;SDS011;57767;42.068;24.752;2023-06-22T00:52:10;11.18;;;6.85;;
70342;SDS011;57767;42.068;24.752;2023-06-22T00:53:15;9.52;;;7.78;;
70342;SDS011;57767;42.068;24.752;2023-06-22T00:54:19;8.60;;;7.70;;
70342;SDS011;57767;42.068;24.752;2023-06-22T00:55:25;8.63;;;7.57;;
70342;SDS011;57767;42.068;24.752;2023-06-22T00:56:27;7.75;;;6.93;;
70342;SDS011;57767;42.068;24.752;2023-06-22T00:57:31;8.35;;;7.50;;
70342;SDS011;57767;42.068;24.752;2023-06-22T00:58:33;8.82;;;7.70;;
70342;SDS011;57767;42.068;24.752;2023-06-22T00:59:36;9.40;;;7.95;;
70342;SDS011;57767;42.068;24.752;2023-06-22T01:00:38;7.32;;;6.63;;
70342;SDS011;57767;42.068;24.752;2023-06-22T01:01:42;7.97;;;7.18;;
70342;SDS011;57767;42.068;24.752;2023-06-22T01:02:44;8.00;;;7.20;;
70342;SDS011;57767;42.068;24.752;2023-06-22T01:03:53;8.73;;;6.88;;
70342;SDS011;57767;42.068;24.752;2023-06-22T01:04:59;7.40;;;6.70;;
70342;SDS011;57767;42.068;24.752;2023-06-22T01:06:08;7.60;;;6.88;;
70342;SDS011;57767;42.068;24.752;2023-06-22T01:08:44;8.18;;;6.50;;
70342;SDS011;57767;42.068;24.752;2023-06-22T01:10:11;7.75;;;6.80;;
70342;SDS011;57767;42.068;24.752;2023-06-22T01:11:21;7.22;;;6.53;;
70342;SDS011;57767;42.068;24.752;2023-06-22T01:12:30;7.30;;;6.65;;
70342;SDS011;57767;42.068;24.752;2023-06-22T01:14:47;8.32;;;7.10;;
70342;SDS011;57767;42.068;24.752;2023-06-22T01:16:00;9.27;;;6.95;;
70342;SDS011;57767;42.068;24.752;2023-06-22T01:17:10;8.07;;;7.28;;
70342;SDS011;57767;42.068;24.752;2023-06-22T01:18:14;9.98;;;6.50;;
70342;SDS011;57767;42.068;24.752;2023-06-22T01:20:38;7.95;;;7.15;;
70342;SDS011;57767;42.068;24.752;2023-06-22T01:21:42;7.82;;;7.13;;
70342;SDS011;57767;42.068;24.752;2023-06-22T01:22:50;7.53;;;6.75;;
70342;SDS011;57767;42.068;24.752;2023-06-22T01:24:02;8.90;;;7.30;;
70342;SDS011;57767;42.068;24.752;2023-06-22T01:25:26;9.00;;;6.45;;
70342;SDS011;57767;42.068;24.752;2023-06-22T01:27:38;7.32;;;6.57;;
70342;SDS011;57767;42.068;24.752;2023-06-22T01:28:23;7.95;;;7.15;;
70342;SDS011;57767;42.068;24.752;2023-06-22T01:29:26;8.00;;;7.22;;
70342;SDS011;57767;42.068;24.752;2023-06-22T01:30:28;7.80;;;7.05;;
70342;SDS011;57767;42.068;24.752;2023-06-22T01:31:32;7.85;;;7.05;;
70342;SDS011;57767;42.068;24.752;2023-06-22T01:32:37;7.95;;;6.95;;
70342;SDS011;57767;42.068;24.752;2023-06-22T01:33:42;7.82;;;7.03;;
70342;SDS011;57767;42.068;24.752;2023-06-22T01:34:45;8.35;;;7.55;;
70342;SDS011;57767;42.068;24.752;2023-06-22T01:35:48;8.25;;;7.07;;
70342;SDS011;57767;42.068;24.752;2023-06-22T01:36:51;7.88;;;7.18;;
70342;SDS011;57767;42.068;24.752;2023-06-22T01:37:54;8.15;;;7.35;;
70342;SDS011;57767;42.068;24.752;2023-06-22T01:38:56;8.73;;;7.65;;
70342;SDS011;57767;42.068;24.752;2023-06-22T01:39:59;8.98;;;8.07;;
70342;SDS011;57767;42.068;24.752;2023-06-22T01:41:01;10.63;;;7.90;;
70342;SDS011;57767;42.068;24.752;2023-06-22T01:42:05;14.68;;;8.43;;
70342;SDS011;57767;42.068;24.752;2023-06-22T01:43:07;9.50;;;7.82;;
70342;SDS011;57767;42.068;24.752;2023-06-22T01:44:10;8.38;;;7.57;;
70342;SDS011;57767;42.068;24.752;2023-06-22T01:45:13;11.30;;;7.70;;
70342;SDS011;57767;42.068;24.752;2023-06-22T01:46:16;8.55;;;7.75;;
70342;SDS011;57767;42.068;24.752;2023-06-22T01:47:21;11.30;;;8.13;;
70342;SDS011;57767;42.068;24.752;2023-06-22T01:48:24;9.15;;;8.25;;
70342;SDS011;57767;42.068;24.752;2023-06-22T01:49:27;8.57;;;7.50;;
70342;SDS011;57767;42.068;24.752;2023-06-22T01:50:29;9.50;;;8.48;;
70342;SDS011;57767;42.068;24.752;2023-06-22T01:51:32;8.90;;;7.95;;
70342;SDS011;57767;42.068;24.752;2023-06-22T01:52:34;9.73;;;8.10;;
70342;SDS011;57767;42.068;24.752;2023-06-22T01:53:35;8.75;;;7.93;;
70342;SDS011;57767;42.068;24.752;2023-06-22T01:54:38;8.50;;;7.70;;
70342;SDS011;57767;42.068;24.752;2023-06-22T01:55:41;9.02;;;7.45;;
70342;SDS011;57767;42.068;24.752;2023-06-22T01:56:43;9.48;;;7.82;;
70342;SDS011;57767;42.068;24.752;2023-06-22T01:57:45;10.45;;;8.38;;
70342;SDS011;57767;42.068;24.752;2023-06-22T01:58:57;10.13;;;8.10;;
70342;SDS011;57767;42.068;24.752;2023-06-22T02:01:09;10.93;;;8.55;;
70342;SDS011;57767;42.068;24.752;2023-06-22T02:02:12;11.63;;;8.25;;
70342;SDS011;57767;42.068;24.752;2023-06-22T02:03:19;9.00;;;8.10;;
70342;SDS011;57767;42.068;24.752;2023-06-22T02:04:26;8.93;;;8.13;;
70342;SDS011;57767;42.068;24.752;2023-06-22T02:05:36;9.35;;;7.90;;
70342;SDS011;57767;42.068;24.752;2023-06-22T02:06:41;9.90;;;8.05;;
70342;SDS011;57767;42.068;24.752;2023-06-22T02:07:45;9.60;;;8.18;;
70342;SDS011;57767;42.068;24.752;2023-06-22T02:08:54;9.23;;;8.43;;
70342;SDS011;57767;42.068;24.752;2023-06-22T02:09:58;10.82;;;7.63;;
70342;SDS011;57767;42.068;24.752;2023-06-22T02:11:03;9.43;;;8.07;;
70342;SDS011;57767;42.068;24.752;2023-06-22T02:12:07;8.70;;;7.50;;
70342;SDS011;57767;42.068;24.752;2023-06-22T02:13:11;11.70;;;8.50;;
70342;SDS011;57767;42.068;24.752;2023-06-22T02:14:15;9.57;;;8.57;;
70342;SDS011;57767;42.068;24.752;2023-06-22T02:15:20;10.07;;;8.20;;
70342;SDS011;57767;42.068;24.752;2023-06-22T02:16:22;10.15;;;8.07;;
70342;SDS011;57767;42.068;24.752;2023-06-22T02:17:24;8.77;;;7.90;;
70342;SDS011;57767;42.068;24.752;2023-06-22T02:18:27;8.32;;;7.50;;
70342;SDS011;57767;42.068;24.752;2023-06-22T02:19:29;9.25;;;8.25;;
70342;SDS011;57767;42.068;24.752;2023-06-22T02:20:38;10.45;;;8.40;;
70342;SDS011;57767;42.068;24.752;2023-06-22T02:21:40;10.88;;;8.38;;
70342;SDS011;57767;42.068;24.752;2023-06-22T02:22:42;8.85;;;7.95;;
70342;SDS011;57767;42.068;24.752;2023-06-22T02:23:44;8.60;;;7.53;;
70342;SDS011;57767;42.068;24.752;2023-06-22T02:24:46;10.98;;;7.75;;
70342;SDS011;57767;42.068;24.752;2023-06-22T02:25:47;11.52;;;7.95;;
70342;SDS011;57767;42.068;24.752;2023-06-22T02:26:49;10.52;;;8.43;;
70342;SDS011;57767;42.068;24.752;2023-06-22T02:27:51;9.63;;;8.45;;
70342;SDS011;57767;42.068;24.752;2023-06-22T02:28:53;9.65;;;8.60;;
70342;SDS011;57767;42.068;24.752;2023-06-22T02:29:55;9.75;;;7.78;;
70342;SDS011;57767;42.068;24.752;2023-06-22T02:30:56;8.75;;;7.38;;
70342;SDS011;57767;42.068;24.752;2023-06-22T02:31:58;20.48;;;8.85;;
70342;SDS011;57767;42.068;24.752;2023-06-22T02:33:00;9.27;;;8.27;;
70342;SDS011;57767;42.068;24.752;2023-06-22T02:34:02;11.32;;;8.68;;
70342;SDS011;57767;42.068;24.752;2023-06-22T02:35:04;9.18;;;8.18;;
70342;SDS011;57767;42.068;24.752;2023-06-22T02:36:06;9.25;;;8.35;;
70342;SDS011;57767;42.068;24.752;2023-06-22T02:37:10;10.07;;;9.10;;
70342;SDS011;57767;42.068;24.752;2023-06-22T02:38:14;10.00;;;8.48;;
70342;SDS011;57767;42.068;24.752;2023-06-22T02:39:24;9.63;;;8.73;;
70342;SDS011;57767;42.068;24.752;2023-06-22T02:40:26;9.10;;;8.02;;
70342;SDS011;57767;42.068;24.752;2023-06-22T02:41:29;9.23;;;8.32;;
70342;SDS011;57767;42.068;24.752;2023-06-22T02:42:31;9.13;;;8.23;;
70342;SDS011;57767;42.068;24.752;2023-06-22T02:43:32;10.95;;;8.55;;
70342;SDS011;57767;42.068;24.752;2023-06-22T02:44:34;9.27;;;8.32;;
70342;SDS011;57767;42.068;24.752;2023-06-22T02:45:36;11.45;;;8.75;;
70342;SDS011;57767;42.068;24.752;2023-06-22T02:46:38;9.07;;;8.27;;
70342;SDS011;57767;42.068;24.752;2023-06-22T02:47:40;9.68;;;8.75;;
70342;SDS011;57767;42.068;24.752;2023-06-22T02:48:42;10.98;;;8.80;;
70342;SDS011;57767;42.068;24.752;2023-06-22T02:49:47;10.00;;;8.48;;
70342;SDS011;57767;42.068;24.752;2023-06-22T02:50:49;9.63;;;8.68;;
70342;SDS011;57767;42.068;24.752;2023-06-22T02:51:50;10.70;;;8.32;;
70342;SDS011;57767;42.068;24.752;2023-06-22T02:52:52;8.70;;;7.90;;
70342;SDS011;57767;42.068;24.752;2023-06-22T02:53:54;11.60;;;8.30;;
70342;SDS011;57767;42.068;24.752;2023-06-22T02:54:59;9.18;;;8.25;;
70342;SDS011;57767;42.068;24.752;2023-06-22T02:56:01;9.63;;;8.48;;
70342;SDS011;57767;42.068;24.752;2023-06-22T02:57:06;9.98;;;8.70;;
70342;SDS011;57767;42.068;24.752;2023-06-22T02:58:08;9.25;;;8.35;;
70342;SDS011;57767;42.068;24.752;2023-06-22T02:59:10;12.13;;;9.10;;
70342;SDS011;57767;42.068;24.752;2023-06-22T03:00:12;9.50;;;8.40;;
70342;SDS011;57767;42.068;24.752;2023-06-22T03:01:21;9.70;;;8.30;;
70342;SDS011;57767;42.068;24.752;2023-06-22T03:02:25;9.73;;;8.77;;
70342;SDS011;57767;42.068;24.752;2023-06-22T03:03:28;9.88;;;8.82;;
70342;SDS011;57767;42.068;24.752;2023-06-22T03:04:30;9.85;;;8.80;;
70342;SDS011;57767;42.068;24.752;2023-06-22T03:05:32;9.73;;;8.73;;
70342;SDS011;57767;42.068;24.752;2023-06-22T03:06:36;9.63;;;8.50;;
70342;SDS011;57767;42.068;24.752;2023-06-22T03:07:38;9.68;;;8.57;;
70342;SDS011;57767;42.068;24.752;2023-06-22T03:08:43;9.70;;;8.27;;
70342;SDS011;57767;42.068;24.752;2023-06-22T03:09:45;10.20;;;9.18;;
70342;SDS011;57767;42.068;24.752;2023-06-22T03:10:47;10.77;;;8.90;;
70342;SDS011;57767;42.068;24.752;2023-06-22T03:11:49;11.40;;;9.07;;
70342;SDS011;57767;42.068;24.752;2023-06-22T03:12:51;12.40;;;8.93;;
70342;SDS011;57767;42.068;24.752;2023-06-22T03:13:53;10.48;;;8.60;;
70342;SDS011;57767;42.068;24.752;2023-06-22T03:14:54;9.90;;;8.50;;
70342;SDS011;57767;42.068;24.752;2023-06-22T03:15:56;14.23;;;8.85;;
70342;SDS011;57767;42.068;24.752;2023-06-22T03:16:58;14.70;;;9.00;;
70342;SDS011;57767;42.068;24.752;2023-06-22T03:18:04;10.38;;;9.35;;
70342;SDS011;57767;42.068;24.752;2023-06-22T03:19:06;13.27;;;9.38;;
70342;SDS011;57767;42.068;24.752;2023-06-22T03:20:08;10.75;;;9.65;;
70342;SDS011;57767;42.068;24.752;2023-06-22T03:21:12;11.13;;;9.32;;
70342;SDS011;57767;42.068;24.752;2023-06-22T03:22:14;13.95;;;9.50;;
70342;SDS011;57767;42.068;24.752;2023-06-22T03:23:16;10.82;;;9.65;;
70342;SDS011;57767;42.068;24.752;2023-06-22T03:24:18;12.27;;;10.00;;
70342;SDS011;57767;42.068;24.752;2023-06-22T03:25:20;10.95;;;9.93;;
70342;SDS011;57767;42.068;24.752;2023-06-22T03:26:21;11.65;;;10.52;;
70342;SDS011;57767;42.068;24.752;2023-06-22T03:27:24;10.65;;;9.65;;
70342;SDS011;57767;42.068;24.752;2023-06-22T03:28:26;11.48;;;10.25;;
70342;SDS011;57767;42.068;24.752;2023-06-22T03:29:28;13.05;;;9.98;;
70342;SDS011;57767;42.068;24.752;2023-06-22T03:30:31;11.25;;;10.07;;
70342;SDS011;57767;42.068;24.752;2023-06-22T03:31:33;12.02;;;9.63;;
70342;SDS011;57767;42.068;24.752;2023-06-22T03:32:35;16.50;;;9.88;;
70342;SDS011;57767;42.068;24.752;2023-06-22T03:33:37;10.52;;;9.15;;
70342;SDS011;57767;42.068;24.752;2023-06-22T03:34:39;10.63;;;9.63;;
70342;SDS011;57767;42.068;24.752;2023-06-22T03:35:42;17.52;;;10.07;;
70342;SDS011;57767;42.068;24.752;2023-06-22T03:36:44;11.02;;;9.88;;
70342;SDS011;57767;42.068;24.752;2023-06-22T03:37:46;12.48;;;9.55;;
70342;SDS011;57767;42.068;24.752;2023-06-22T03:38:49;10.15;;;9.15;;
70342;SDS011;57767;42.068;24.752;2023-06-22T03:39:51;10.90;;;9.73;;
70342;SDS011;57767;42.068;24.752;2023-06-22T03:40:54;11.23;;;9.88;;
70342;SDS011;57767;42.068;24.752;2023-06-22T03:41:55;10.50;;;9.45;;
70342;SDS011;57767;42.068;24.752;2023-06-22T03:42:57;10.85;;;9.63;;
70342;SDS011;57767;42.068;24.752;2023-06-22T03:43:59;11.68;;;9.23;;
70342;SDS011;57767;42.068;24.752;2023-06-22T03:45:01;10.32;;;9.32;;
70342;SDS011;57767;42.068;24.752;2023-06-22T03:46:03;12.55;;;9.63;;
70342;SDS011;57767;42.068;24.752;2023-06-22T03:47:05;11.27;;;9.65;;
70342;SDS011;57767;42.068;24.752;2023-06-22T03:48:08;13.90;;;10.43;;
70342;SDS011;57767;42.068;24.752;2023-06-22T03:49:10;11.15;;;9.40;;
70342;SDS011;57767;42.068;24.752;2023-06-22T03:50:12;14.57;;;8.82;;
70342;SDS011;57767;42.068;24.752;2023-06-22T03:51:15;12.07;;;9.40;;
70342;SDS011;57767;42.068;24.752;2023-06-22T03:52:17;11.05;;;8.88;;
70342;SDS011;57767;42.068;24.752;2023-06-22T03:53:18;11.80;;;9.60;;
70342;SDS011;57767;42.068;24.752;2023-06-22T03:54:20;12.73;;;9.70;;
70342;SDS011;57767;42.068;24.752;2023-06-22T03:55:22;12.23;;;10.40;;
70342;SDS011;57767;42.068;24.752;2023-06-22T03:56:24;11.85;;;9.60;;
70342;SDS011;57767;42.068;24.752;2023-06-22T03:57:25;12.85;;;9.43;;
70342;SDS011;57767;42.068;24.752;2023-06-22T03:58:27;11.68;;;9.77;;
70342;SDS011;57767;42.068;24.752;2023-06-22T03:59:34;15.98;;;9.73;;
70342;SDS011;57767;42.068;24.752;2023-06-22T04:00:36;10.45;;;9.27;;
70342;SDS011;57767;42.068;24.752;2023-06-22T04:01:38;13.93;;;9.25;;
70342;SDS011;57767;42.068;24.752;2023-06-22T04:02:40;10.95;;;9.25;;
70342;SDS011;57767;42.068;24.752;2023-06-22T04:03:42;11.80;;;9.25;;
70342;SDS011;57767;42.068;24.752;2023-06-22T04:04:44;10.57;;;9.45;;
70342;SDS011;57767;42.068;24.752;2023-06-22T04:05:46;13.27;;;9.65;;
70342;SDS011;57767;42.068;24.752;2023-06-22T04:06:49;10.40;;;9.35;;
70342;SDS011;57767;42.068;24.752;2023-06-22T04:07:51;10.40;;;9.35;;
70342;SDS011;57767;42.068;24.752;2023-06-22T04:08:52;10.32;;;9.23;;
70342;SDS011;57767;42.068;24.752;2023-06-22T04:09:54;10.30;;;9.30;;
70342;SDS011;57767;42.068;24.752;2023-06-22T04:10:56;9.52;;;8.63;;
70342;SDS011;57767;42.068;24.752;2023-06-22T04:11:58;10.20;;;9.13;;
70342;SDS011;57767;42.068;24.752;2023-06-22T04:13:00;9.50;;;8.38;;
70342;SDS011;57767;42.068;24.752;2023-06-22T04:14:01;10.05;;;8.93;;
70342;SDS011;57767;42.068;24.752;2023-06-22T04:15:03;10.27;;;8.70;;
70342;SDS011;57767;42.068;24.752;2023-06-22T04:16:05;16.05;;;9.15;;
70342;SDS011;57767;42.068;24.752;2023-06-22T04:17:07;17.17;;;9.63;;
70342;SDS011;57767;42.068;24.752;2023-06-22T04:18:09;10.27;;;8.63;;
70342;SDS011;57767;42.068;24.752;2023-06-22T04:19:11;9.38;;;8.25;;
70342;SDS011;57767;42.068;24.752;2023-06-22T04:20:17;10.30;;;7.57;;
70342;SDS011;57767;42.068;24.752;2023-06-22T04:21:19;10.43;;;7.93;;
70342;SDS011;57767;42.068;24.752;2023-06-22T04:22:21;10.50;;;8.38;;
70342;SDS011;57767;42.068;24.752;2023-06-22T04:23:23;9.50;;;8.60;;
70342;SDS011;57767;42.068;24.752;2023-06-22T04:24:24;9.00;;;8.18;;
70342;SDS011;57767;42.068;24.752;2023-06-22T04:25:26;11.52;;;8.82;;
70342;SDS011;57767;42.068;24.752;2023-06-22T04:26:28;10.43;;;9.32;;
70342;SDS011;57767;42.068;24.752;2023-06-22T04:27:30;13.57;;;8.98;;
70342;SDS011;57767;42.068;24.752;2023-06-22T04:28:32;9.85;;;8.93;;
70342;SDS011;57767;42.068;24.752;2023-06-22T04:29:37;12.82;;;8.95;;
70342;SDS011;57767;42.068;24.752;2023-06-22T04:30:39;12.32;;;8.70;;
70342;SDS011;57767;42.068;24.752;2023-06-22T04:31:48;11.27;;;8.98;;
70342;SDS011;57767;42.068;24.752;2023-06-22T04:32:52;11.45;;;9.43;;
70342;SDS011;57767;42.068;24.752;2023-06-22T04:33:59;9.02;;;8.02;;
70342;SDS011;57767;42.068;24.752;2023-06-22T04:35:07;14.35;;;9.40;;
70342;SDS011;57767;42.068;24.752;2023-06-22T04:36:09;12.85;;;8.73;;
70342;SDS011;57767;42.068;24.752;2023-06-22T04:37:14;11.90;;;8.70;;
70342;SDS011;57767;42.068;24.752;2023-06-22T04:38:17;17.52;;;8.93;;
70342;SDS011;57767;42.068;24.752;2023-06-22T04:39:18;8.93;;;7.93;;
70342;SDS011;57767;42.068;24.752;2023-06-22T04:40:21;10.77;;;8.23;;
70342;SDS011;57767;42.068;24.752;2023-06-22T04:41:24;8.82;;;7.90;;
70342;SDS011;57767;42.068;24.752;2023-06-22T04:42:26;14.27;;;8.00;;
70342;SDS011;57767;42.068;24.752;2023-06-22T04:43:28;9.85;;;8.52;;
70342;SDS011;57767;42.068;24.752;2023-06-22T04:44:32;10.15;;;8.02;;
70342;SDS011;57767;42.068;24.752;2023-06-22T04:45:33;18.25;;;8.77;;
70342;SDS011;57767;42.068;24.752;2023-06-22T04:46:39;11.00;;;7.95;;
70342;SDS011;57767;42.068;24.752;2023-06-22T04:47:41;10.63;;;7.85;;
70342;SDS011;57767;42.068;24.752;2023-06-22T04:48:43;14.40;;;8.93;;
70342;SDS011;57767;42.068;24.752;2023-06-22T04:49:45;16.63;;;8.57;;
70342;SDS011;57767;42.068;24.752;2023-06-22T04:50:47;22.48;;;9.10;;
70342;SDS011;57767;42.068;24.752;2023-06-22T04:51:48;33.45;;;9.93;;
70342;SDS011;57767;42.068;24.752;2023-06-22T04:52:53;12.52;;;8.02;;
70342;SDS011;57767;42.068;24.752;2023-06-22T04:53:55;30.60;;;10.07;;
70342;SDS011;57767;42.068;24.752;2023-06-22T04:55:02;12.30;;;8.07;;
70342;SDS011;57767;42.068;24.752;2023-06-22T04:56:05;10.90;;;8.77;;
70342;SDS011;57767;42.068;24.752;2023-06-22T04:57:07;42.17;;;12.00;;
70342;SDS011;57767;42.068;24.752;2023-06-22T04:58:12;15.23;;;9.13;;
70342;SDS011;57767;42.068;24.752;2023-06-22T04:59:14;36.42;;;11.05;;
70342;SDS011;57767;42.068;24.752;2023-06-22T05:00:19;13.48;;;8.68;;
70342;SDS011;57767;42.068;24.752;2023-06-22T05:01:24;12.50;;;8.20;;
70342;SDS011;57767;42.068;24.752;2023-06-22T05:02:28;12.82;;;8.80;;
70342;SDS011;57767;42.068;24.752;2023-06-22T05:03:33;13.73;;;8.13;;
70342;SDS011;57767;42.068;24.752;2023-06-22T05:04:35;9.07;;;8.18;;
70342;SDS011;57767;42.068;24.752;2023-06-22T05:05:42;14.88;;;8.02;;
70342;SDS011;57767;42.068;24.752;2023-06-22T05:06:44;10.63;;;7.80;;
70342;SDS011;57767;42.068;24.752;2023-06-22T05:07:46;11.82;;;7.65;;
70342;SDS011;57767;42.068;24.752;2023-06-22T05:08:54;8.48;;;7.47;;
70342;SDS011;57767;42.068;24.752;2023-06-22T05:10:00;8.52;;;7.63;;
70342;SDS011;57767;42.068;24.752;2023-06-22T05:11:03;8.95;;;8.02;;
70342;SDS011;57767;42.068;24.752;2023-06-22T05:12:06;8.23;;;7.38;;
70342;SDS011;57767;42.068;24.752;2023-06-22T05:13:11;9.20;;;7.90;;
70342;SDS011;57767;42.068;24.752;2023-06-22T05:14:13;8.50;;;7.57;;
70342;SDS011;57767;42.068;24.752;2023-06-22T05:15:15;8.82;;;7.93;;
70342;SDS011;57767;42.068;24.752;2023-06-22T05:16:17;8.75;;;7.85;;
70342;SDS011;57767;42.068;24.752;2023-06-22T05:17:19;9.52;;;8.13;;
70342;SDS011;57767;42.068;24.752;2023-06-22T05:18:21;10.23;;;8.50;;
70342;SDS011;57767;42.068;24.752;2023-06-22T05:19:25;9.95;;;8.80;;
70342;SDS011;57767;42.068;24.752;2023-06-22T05:20:35;13.45;;;7.50;;
70342;SDS011;57767;42.068;24.752;2023-06-22T05:21:38;13.10;;;7.75;;
70342;SDS011;57767;42.068;24.752;2023-06-22T05:22:40;13.20;;;8.20;;
70342;SDS011;57767;42.068;24.752;2023-06-22T05:23:42;9.30;;;7.15;;
70342;SDS011;57767;42.068;24.752;2023-06-22T05:24:45;9.55;;;7.30;;
70342;SDS011;57767;42.068;24.752;2023-06-22T05:25:47;8.30;;;7.47;;
70342;SDS011;57767;42.068;24.752;2023-06-22T05:26:48;15.68;;;7.72;;
70342;SDS011;57767;42.068;24.752;2023-06-22T05:27:50;8.65;;;7.70;;
70342;SDS011;57767;42.068;24.752;2023-06-22T05:28:53;9.13;;;7.65;;
70342;SDS011;57767;42.068;24.752;2023-06-22T05:29:55;9.73;;;7.97;;
70342;SDS011;57767;42.068;24.752;2023-06-22T05:30:56;10.65;;;7.32;;
70342;SDS011;57767;42.068;24.752;2023-06-22T05:31:58;8.80;;;7.85;;
70342;SDS011;57767;42.068;24.752;2023-06-22T05:33:01;8.82;;;7.28;;
70342;SDS011;57767;42.068;24.752;2023-06-22T05:34:03;9.25;;;7.22;;
70342;SDS011;57767;42.068;24.752;2023-06-22T05:35:05;8.35;;;7.55;;
70342;SDS011;57767;42.068;24.752;2023-06-22T05:36:07;11.65;;;8.02;;
70342;SDS011;57767;42.068;24.752;2023-06-22T05:37:10;10.77;;;7.65;;
70342;SDS011;57767;42.068;24.752;2023-06-22T05:38:14;12.40;;;7.40;;
70342;SDS011;57767;42.068;24.752;2023-06-22T05:39:15;10.57;;;8.07;;
70342;SDS011;57767;42.068;24.752;2023-06-22T05:40:17;24.45;;;8.60;;
70342;SDS011;57767;42.068;24.752;2023-06-22T05:41:19;21.27;;;7.80;;
70342;SDS011;57767;42.068;24.752;2023-06-22T05:42:21;8.52;;;7.47;;
70342;SDS011;57767;42.068;24.752;2023-06-22T05:43:23;8.25;;;7.38;;
70342;SDS011;57767;42.068;24.752;2023-06-22T05:44:25;11.38;;;7.22;;
70342;SDS011;57767;42.068;24.752;2023-06-22T05:45:26;14.50;;;8.27;;
70342;SDS011;57767;42.068;24.752;2023-06-22T05:46:28;9.73;;;7.57;;
70342;SDS011;57767;42.068;24.752;2023-06-22T05:47:30;12.05;;;7.35;;
70342;SDS011;57767;42.068;24.752;2023-06-22T05:48:32;13.68;;;7.95;;
70342;SDS011;57767;42.068;24.752;2023-06-22T05:49:34;8.98;;;8.07;;
70342;SDS011;57767;42.068;24.752;2023-06-22T05:50:36;11.75;;;7.65;;
70342;SDS011;57767;42.068;24.752;2023-06-22T05:51:38;9.00;;;7.30;;
70342;SDS011;57767;42.068;24.752;2023-06-22T05:52:40;9.90;;;7.63;;
70342;SDS011;57767;42.068;24.752;2023-06-22T05:53:42;9.38;;;7.75;;
70342;SDS011;57767;42.068;24.752;2023-06-22T05:54:45;8.50;;;7.70;;
70342;SDS011;57767;42.068;24.752;2023-06-22T05:55:47;9.77;;;7.90;;
70342;SDS011;57767;42.068;24.752;2023-06-22T05:56:49;11.38;;;7.63;;
70342;SDS011;57767;42.068;24.752;2023-06-22T05:57:51;10.10;;;7.47;;
70342;SDS011;57767;42.068;24.752;2023-06-22T05:58:53;14.27;;;8.15;;
70342;SDS011;57767;42.068;24.752;2023-06-22T05:59:55;10.48;;;7.65;;
70342;SDS011;57767;42.068;24.752;2023-06-22T06:00:56;9.55;;;7.65;;
70342;SDS011;57767;42.068;24.752;2023-06-22T06:01:58;8.23;;;7.50;;
70342;SDS011;57767;42.068;24.752;2023-06-22T06:03:00;7.93;;;7.22;;
70342;SDS011;57767;42.068;24.752;2023-06-22T06:04:05;13.65;;;7.20;;
70342;SDS011;57767;42.068;24.752;2023-06-22T06:05:12;8.45;;;7.65;;
70342;SDS011;57767;42.068;24.752;2023-06-22T06:06:17;8.52;;;7.63;;
70342;SDS011;57767;42.068;24.752;2023-06-22T06:07:19;10.25;;;7.88;;
70342;SDS011;57767;42.068;24.752;2023-06-22T06:08:21;11.82;;;7.47;;
70342;SDS011;57767;42.068;24.752;2023-06-22T06:09:23;9.32;;;7.82;;
70342;SDS011;57767;42.068;24.752;2023-06-22T06:10:24;11.35;;;8.00;;
70342;SDS011;57767;42.068;24.752;2023-06-22T06:11:26;12.57;;;7.63;;
70342;SDS011;57767;42.068;24.752;2023-06-22T06:12:28;7.97;;;7.28;;
70342;SDS011;57767;42.068;24.752;2023-06-22T06:13:30;9.60;;;7.50;;
70342;SDS011;57767;42.068;24.752;2023-06-22T06:14:32;9.45;;;7.50;;
70342;SDS011;57767;42.068;24.752;2023-06-22T06:15:34;12.93;;;7.85;;
70342;SDS011;57767;42.068;24.752;2023-06-22T06:16:36;8.80;;;7.18;;
70342;SDS011;57767;42.068;24.752;2023-06-22T06:17:51;12.32;;;7.95;;